createdAt,value
2022-11-27T00:00:02.197Z,14.81
2022-11-27T00:00:12.195Z,14.81
2022-11-27T00:00:22.198Z,14.83
2022-11-27T00:00:32.197Z,14.81
2022-11-27T00:00:42.198Z,14.81
2022-11-27T00:00:52.192Z,14.81
2022-11-27T00:01:02.198Z,14.80
2022-11-27T00:01:12.200Z,14.81
2022-11-27T00:01:22.201Z,14.81
2022-11-27T00:01:32.212Z,14.81
2022-11-27T00:01:42.205Z,14.81
2022-11-27T00:01:52.205Z,14.81
2022-11-27T00:02:02.205Z,14.81
2022-11-27T00:02:12.244Z,14.83
2022-11-27T00:02:22.245Z,14.81
2022-11-27T00:02:36.466Z,14.81
2022-11-27T00:02:43.280Z,14.81
2022-11-27T00:02:52.250Z,14.80
2022-11-27T00:03:02.456Z,14.83
2022-11-27T00:03:12.320Z,14.81
2022-11-27T00:03:22.307Z,14.81
2022-11-27T00:03:32.303Z,14.81
2022-11-27T00:03:42.416Z,14.81
2022-11-27T00:03:52.294Z,14.81
2022-11-27T00:04:02.328Z,14.80
2022-11-27T00:04:12.250Z,14.81
2022-11-27T00:04:22.212Z,14.81
2022-11-27T00:04:32.216Z,14.80
2022-11-27T00:04:42.212Z,14.81
2022-11-27T00:04:52.213Z,14.81
2022-11-27T00:05:02.217Z,14.81
2022-11-27T00:05:12.217Z,14.80
2022-11-27T00:05:22.219Z,14.80
2022-11-27T00:05:32.220Z,14.80
2022-11-27T00:05:42.218Z,14.80
2022-11-27T00:05:52.241Z,14.81
2022-11-27T00:06:02.222Z,14.83
2022-11-27T00:06:12.221Z,14.80
2022-11-27T00:06:22.223Z,14.80
2022-11-27T00:06:32.208Z,14.80
2022-11-27T00:06:42.225Z,14.80
2022-11-27T00:06:52.231Z,14.80
2022-11-27T00:07:02.228Z,14.78
2022-11-27T00:07:12.263Z,14.78
2022-11-27T00:07:22.268Z,14.80
2022-11-27T00:07:32.268Z,14.80
2022-11-27T00:07:42.292Z,14.80
2022-11-27T00:07:52.280Z,14.80
2022-11-27T00:08:02.297Z,14.81
2022-11-27T00:08:12.232Z,14.80
2022-11-27T00:08:22.234Z,14.80
2022-11-27T00:08:32.232Z,14.80
2022-11-27T00:08:42.234Z,14.81
2022-11-27T00:08:52.244Z,14.80
2022-11-27T00:09:02.249Z,14.80
2022-11-27T00:09:12.222Z,14.80
2022-11-27T00:09:22.242Z,14.80
2022-11-27T00:09:32.242Z,14.80
2022-11-27T00:09:42.617Z,14.80
2022-11-27T00:09:52.241Z,14.81
2022-11-27T00:10:02.247Z,14.81
2022-11-27T00:10:12.245Z,14.81
2022-11-27T00:10:22.252Z,14.81
2022-11-27T00:10:32.240Z,14.81
2022-11-27T00:10:42.245Z,14.80
2022-11-27T00:10:52.243Z,14.81
2022-11-27T00:11:02.251Z,14.83
2022-11-27T00:11:12.246Z,14.81
2022-11-27T00:11:22.245Z,14.83
2022-11-27T00:11:32.256Z,14.80
2022-11-27T00:11:42.248Z,14.81
2022-11-27T00:11:52.229Z,14.81
2022-11-27T00:12:02.246Z,14.81
2022-11-27T00:12:12.246Z,14.81
2022-11-27T00:12:22.249Z,14.81
2022-11-27T00:12:32.249Z,14.83
2022-11-27T00:12:42.249Z,14.80
2022-11-27T00:12:52.255Z,14.81
2022-11-27T00:13:02.249Z,14.80
2022-11-27T00:13:12.252Z,14.81
2022-11-27T00:13:22.254Z,14.80
2022-11-27T00:13:32.235Z,14.81
2022-11-27T00:13:42.237Z,14.81
2022-11-27T00:13:52.261Z,14.81
2022-11-27T00:14:02.256Z,14.81
2022-11-27T00:14:12.240Z,14.81
2022-11-27T00:14:22.256Z,14.83
2022-11-27T00:14:32.258Z,14.83
2022-11-27T00:14:42.258Z,14.83
2022-11-27T00:14:55.469Z,14.83
2022-11-27T00:15:02.268Z,14.81
2022-11-27T00:15:16.996Z,14.83
2022-11-27T00:15:23.261Z,14.81
2022-11-27T00:15:32.354Z,14.80
2022-11-27T00:15:42.334Z,14.81
2022-11-27T00:15:52.294Z,14.81
2022-11-27T00:16:02.357Z,14.83
2022-11-27T00:16:12.321Z,14.81
2022-11-27T00:16:22.359Z,14.80
2022-11-27T00:16:32.356Z,14.81
2022-11-27T00:16:42.269Z,14.81
2022-11-27T00:16:52.271Z,14.80
2022-11-27T00:17:02.252Z,14.81
2022-11-27T00:17:12.273Z,14.83
2022-11-27T00:17:22.274Z,14.83
2022-11-27T00:17:32.276Z,14.81
2022-11-27T00:17:42.273Z,14.81
2022-11-27T00:17:52.276Z,14.80
2022-11-27T00:18:02.257Z,14.83
2022-11-27T00:18:12.276Z,14.81
2022-11-27T00:18:22.277Z,14.81
2022-11-27T00:18:32.277Z,14.83
2022-11-27T00:18:42.280Z,14.81
2022-11-27T00:18:52.278Z,14.81
2022-11-27T00:19:02.280Z,14.81
2022-11-27T00:19:12.283Z,14.81
2022-11-27T00:19:22.281Z,14.81
2022-11-27T00:19:32.283Z,14.81
2022-11-27T00:19:42.471Z,14.81
2022-11-27T00:19:52.287Z,14.81
2022-11-27T00:20:02.288Z,14.83
2022-11-27T00:20:12.286Z,14.83
2022-11-27T00:20:26.064Z,14.81
2022-11-27T00:20:33.288Z,14.81
2022-11-27T00:20:42.271Z,14.81
2022-11-27T00:20:52.272Z,14.81
2022-11-27T00:21:02.292Z,14.81
2022-11-27T00:21:12.288Z,14.83
2022-11-27T00:21:22.310Z,14.83
2022-11-27T00:21:32.292Z,14.81
2022-11-27T00:21:42.295Z,14.80
2022-11-27T00:21:52.292Z,14.81
2022-11-27T00:22:02.277Z,14.81
2022-11-27T00:22:12.298Z,14.81
2022-11-27T00:22:22.278Z,14.81
2022-11-27T00:22:32.296Z,14.81
2022-11-27T00:22:42.304Z,14.81
2022-11-27T00:22:52.297Z,14.83
2022-11-27T00:23:02.299Z,14.81
2022-11-27T00:23:12.301Z,14.83
2022-11-27T00:23:22.301Z,14.83
2022-11-27T00:23:32.301Z,14.81
2022-11-27T00:23:42.303Z,14.81
2022-11-27T00:23:52.306Z,14.81
2022-11-27T00:24:02.305Z,14.81
2022-11-27T00:24:12.306Z,14.81
2022-11-27T00:24:22.309Z,14.81
2022-11-27T00:24:32.305Z,14.81
2022-11-27T00:24:42.567Z,14.81
2022-11-27T00:24:52.308Z,14.80
2022-11-27T00:25:02.309Z,14.81
2022-11-27T00:25:12.293Z,14.81
2022-11-27T00:25:22.309Z,14.83
2022-11-27T00:25:32.314Z,14.80
2022-11-27T00:25:42.314Z,14.81
2022-11-27T00:25:52.315Z,14.81
2022-11-27T00:26:02.317Z,14.81
2022-11-27T00:26:12.315Z,14.80
2022-11-27T00:26:22.301Z,14.81
2022-11-27T00:26:37.583Z,14.80
2022-11-27T00:26:43.317Z,14.80
2022-11-27T00:26:52.319Z,14.80
2022-11-27T00:27:02.320Z,14.81
2022-11-27T00:27:12.328Z,14.80
2022-11-27T00:27:22.324Z,14.81
2022-11-27T00:27:32.325Z,14.80
2022-11-27T00:27:42.325Z,14.81
2022-11-27T00:27:52.323Z,14.78
2022-11-27T00:28:02.325Z,14.80
2022-11-27T00:28:12.328Z,14.80
2022-11-27T00:28:22.328Z,14.78
2022-11-27T00:28:32.329Z,14.80
2022-11-27T00:28:42.333Z,14.80
2022-11-27T00:28:52.329Z,14.81
2022-11-27T00:29:02.333Z,14.80
2022-11-27T00:29:12.316Z,14.80
2022-11-27T00:29:22.335Z,14.81
2022-11-27T00:29:32.335Z,14.78
2022-11-27T00:29:42.340Z,14.80
2022-11-27T00:29:52.338Z,14.80
2022-11-27T00:30:02.336Z,14.80
2022-11-27T00:30:12.337Z,14.78
2022-11-27T00:30:22.337Z,14.80
2022-11-27T00:30:32.340Z,14.80
2022-11-27T00:30:42.341Z,14.78
2022-11-27T00:30:52.403Z,14.80
2022-11-27T00:31:02.403Z,14.80
2022-11-27T00:31:12.412Z,14.78
2022-11-27T00:31:22.384Z,14.75
2022-11-27T00:31:32.453Z,14.80
2022-11-27T00:31:42.423Z,14.80
2022-11-27T00:31:52.349Z,14.78
2022-11-27T00:32:02.348Z,14.78
2022-11-27T00:32:12.345Z,14.78
2022-11-27T00:32:22.347Z,14.75
2022-11-27T00:32:32.331Z,14.78
2022-11-27T00:32:42.357Z,14.78
2022-11-27T00:32:52.349Z,14.75
2022-11-27T00:33:02.397Z,14.78
2022-11-27T00:33:12.353Z,14.78
2022-11-27T00:33:22.351Z,14.78
2022-11-27T00:33:32.351Z,14.80
2022-11-27T00:33:42.355Z,14.78
2022-11-27T00:33:52.354Z,14.75
2022-11-27T00:34:02.339Z,14.75
2022-11-27T00:34:12.356Z,14.78
2022-11-27T00:34:22.358Z,14.78
2022-11-27T00:34:32.360Z,14.78
2022-11-27T00:34:42.542Z,14.78
2022-11-27T00:34:52.358Z,14.75
2022-11-27T00:35:02.362Z,14.75
2022-11-27T00:35:12.368Z,14.78
2022-11-27T00:35:22.361Z,14.78
2022-11-27T00:35:32.366Z,14.75
2022-11-27T00:35:42.368Z,14.75
2022-11-27T00:35:52.364Z,14.78
2022-11-27T00:36:02.377Z,14.78
2022-11-27T00:36:12.370Z,14.78
2022-11-27T00:36:22.364Z,14.78
2022-11-27T00:36:32.367Z,14.75
2022-11-27T00:36:46.645Z,14.75
2022-11-27T00:36:53.367Z,14.78
2022-11-27T00:37:02.373Z,14.78
2022-11-27T00:37:12.376Z,14.78
2022-11-27T00:37:22.370Z,14.78
2022-11-27T00:37:32.374Z,14.75
2022-11-27T00:37:42.374Z,14.78
2022-11-27T00:37:52.370Z,14.75
2022-11-27T00:38:02.372Z,14.74
2022-11-27T00:38:12.373Z,14.75
2022-11-27T00:38:22.375Z,14.78
2022-11-27T00:38:37.272Z,14.75
2022-11-27T00:38:43.374Z,14.75
2022-11-27T00:38:52.378Z,14.75
2022-11-27T00:39:02.374Z,14.75
2022-11-27T00:39:12.377Z,14.74
2022-11-27T00:39:22.378Z,14.75
2022-11-27T00:39:32.362Z,14.75
2022-11-27T00:39:42.379Z,14.74
2022-11-27T00:39:52.382Z,14.75
2022-11-27T00:40:02.381Z,14.74
2022-11-27T00:40:12.385Z,14.74
2022-11-27T00:40:22.383Z,14.74
2022-11-27T00:40:32.387Z,14.74
2022-11-27T00:40:42.393Z,14.74
2022-11-27T00:40:52.386Z,14.74
2022-11-27T00:41:02.397Z,14.74
2022-11-27T00:41:12.389Z,14.75
2022-11-27T00:41:22.393Z,14.74
2022-11-27T00:41:32.396Z,14.74
2022-11-27T00:41:42.391Z,14.74
2022-11-27T00:41:52.423Z,14.74
2022-11-27T00:42:02.393Z,14.74
2022-11-27T00:42:12.393Z,14.75
2022-11-27T00:42:22.396Z,14.75
2022-11-27T00:42:32.396Z,14.74
2022-11-27T00:42:42.396Z,14.75
2022-11-27T00:42:52.400Z,14.75
2022-11-27T00:43:02.401Z,14.74
2022-11-27T00:43:12.398Z,14.75
2022-11-27T00:43:22.398Z,14.74
2022-11-27T00:43:43.022Z,14.74
2022-11-27T00:43:44.878Z,14.74
2022-11-27T00:43:52.402Z,14.74
2022-11-27T00:44:02.405Z,14.78
2022-11-27T00:44:12.405Z,14.75
2022-11-27T00:44:22.385Z,14.74
2022-11-27T00:44:32.404Z,14.75
2022-11-27T00:44:42.508Z,14.75
2022-11-27T00:44:52.407Z,14.75
2022-11-27T00:45:02.406Z,14.75
2022-11-27T00:45:12.408Z,14.75
2022-11-27T00:45:22.410Z,14.74
2022-11-27T00:45:32.405Z,14.74
2022-11-27T00:45:42.408Z,14.78
2022-11-27T00:45:52.409Z,14.74
2022-11-27T00:46:02.456Z,14.75
2022-11-27T00:46:12.469Z,14.75
2022-11-27T00:46:27.902Z,14.74
2022-11-27T00:46:33.526Z,14.75
2022-11-27T00:46:42.472Z,14.75
2022-11-27T00:46:52.446Z,14.75
2022-11-27T00:47:02.482Z,14.74
2022-11-27T00:47:12.415Z,14.75
2022-11-27T00:47:22.416Z,14.75
2022-11-27T00:47:32.418Z,14.75
2022-11-27T00:47:42.417Z,14.78
2022-11-27T00:47:52.422Z,14.74
2022-11-27T00:48:02.422Z,14.75
2022-11-27T00:48:12.420Z,14.75
2022-11-27T00:48:22.421Z,14.75
2022-11-27T00:48:32.427Z,14.78
2022-11-27T00:48:42.434Z,14.74
2022-11-27T00:48:52.426Z,14.75
2022-11-27T00:49:02.423Z,14.75
2022-11-27T00:49:12.429Z,14.78
2022-11-27T00:49:22.424Z,14.78
2022-11-27T00:49:32.426Z,14.75
2022-11-27T00:49:42.426Z,14.75
2022-11-27T00:49:52.427Z,14.74
2022-11-27T00:50:02.429Z,14.78
2022-11-27T00:50:12.426Z,14.74
2022-11-27T00:50:22.428Z,14.75
2022-11-27T00:50:32.427Z,14.75
2022-11-27T00:50:42.430Z,14.78
2022-11-27T00:50:52.430Z,14.75
2022-11-27T00:51:02.442Z,14.74
2022-11-27T00:51:12.431Z,14.78
2022-11-27T00:51:22.434Z,14.75
2022-11-27T00:51:32.434Z,14.75
2022-11-27T00:51:42.437Z,14.78
2022-11-27T00:51:52.443Z,14.75
2022-11-27T00:52:02.448Z,14.78
2022-11-27T00:52:12.434Z,14.75
2022-11-27T00:52:22.436Z,14.75
2022-11-27T00:52:32.438Z,14.78
2022-11-27T00:52:42.444Z,14.75
2022-11-27T00:52:52.441Z,14.78
2022-11-27T00:53:02.440Z,14.75
2022-11-27T00:53:12.441Z,14.78
2022-11-27T00:53:22.443Z,14.78
2022-11-27T00:53:32.445Z,14.78
2022-11-27T00:53:42.443Z,14.75
2022-11-27T00:53:52.443Z,14.75
2022-11-27T00:54:02.445Z,14.74
2022-11-27T00:54:12.445Z,14.75
2022-11-27T00:54:22.965Z,14.75
2022-11-27T00:54:32.452Z,14.74
2022-11-27T00:54:42.661Z,14.75
2022-11-27T00:54:52.449Z,14.75
2022-11-27T00:55:02.457Z,14.75
2022-11-27T00:55:12.452Z,14.74
2022-11-27T00:55:22.456Z,14.78
2022-11-27T00:55:32.454Z,14.75
2022-11-27T00:55:42.455Z,14.74
2022-11-27T00:55:52.462Z,14.75
2022-11-27T00:56:02.471Z,14.78
2022-11-27T00:56:12.458Z,14.75
2022-11-27T00:56:22.460Z,14.74
2022-11-27T00:56:32.461Z,14.75
2022-11-27T00:56:42.462Z,14.75
2022-11-27T00:56:52.461Z,14.78
2022-11-27T00:57:02.465Z,14.74
2022-11-27T00:57:12.463Z,14.75
2022-11-27T00:57:22.465Z,14.75
2022-11-27T00:57:32.482Z,14.75
2022-11-27T00:57:42.464Z,14.75
2022-11-27T00:57:52.464Z,14.74
2022-11-27T00:58:02.465Z,14.75
2022-11-27T00:58:12.465Z,14.75
2022-11-27T00:58:22.467Z,14.74
2022-11-27T00:58:32.474Z,14.74
2022-11-27T00:58:42.495Z,14.75
2022-11-27T00:58:52.470Z,14.75
2022-11-27T00:59:02.475Z,14.74
2022-11-27T00:59:12.474Z,14.74
2022-11-27T00:59:22.474Z,14.74
2022-11-27T00:59:32.472Z,14.74
2022-11-27T00:59:42.476Z,14.74
2022-11-27T00:59:52.476Z,14.75
2022-11-27T01:00:02.501Z,14.74
2022-11-27T01:00:12.490Z,14.74
2022-11-27T01:00:22.477Z,14.75
2022-11-27T01:00:32.481Z,14.75
2022-11-27T01:00:42.480Z,14.74
2022-11-27T01:00:52.477Z,14.75
2022-11-27T01:01:02.499Z,14.74
2022-11-27T01:01:12.527Z,14.75
2022-11-27T01:01:22.494Z,14.75
2022-11-27T01:01:32.564Z,14.74
2022-11-27T01:01:42.568Z,14.75
2022-11-27T01:01:52.555Z,14.75
2022-11-27T01:02:02.527Z,14.74
2022-11-27T01:02:12.594Z,14.74
2022-11-27T01:02:22.525Z,14.74
2022-11-27T01:02:32.525Z,14.75
2022-11-27T01:02:42.541Z,14.75
2022-11-27T01:02:52.540Z,14.75
2022-11-27T01:03:02.689Z,14.72
2022-11-27T01:03:12.523Z,14.74
2022-11-27T01:03:22.502Z,14.74
2022-11-27T01:03:32.491Z,14.75
2022-11-27T01:03:42.493Z,14.75
2022-11-27T01:03:52.499Z,14.75
2022-11-27T01:04:02.493Z,14.75
2022-11-27T01:04:12.477Z,14.74
2022-11-27T01:04:22.494Z,14.74
2022-11-27T01:04:32.504Z,14.75
2022-11-27T01:04:42.710Z,14.75
2022-11-27T01:04:52.498Z,14.74
2022-11-27T01:05:02.485Z,14.74
2022-11-27T01:05:12.499Z,14.74
2022-11-27T01:05:22.498Z,14.74
2022-11-27T01:05:32.501Z,14.74
2022-11-27T01:05:42.500Z,14.74
2022-11-27T01:05:52.501Z,14.75
2022-11-27T01:06:02.544Z,14.75
2022-11-27T01:06:12.509Z,14.74
2022-11-27T01:06:22.507Z,14.74
2022-11-27T01:06:32.508Z,14.75
2022-11-27T01:06:42.509Z,14.75
2022-11-27T01:06:52.507Z,14.75
2022-11-27T01:07:02.523Z,14.72
2022-11-27T01:07:12.573Z,14.75
2022-11-27T01:07:22.574Z,14.75
2022-11-27T01:07:32.547Z,14.74
2022-11-27T01:07:42.577Z,14.74
2022-11-27T01:07:52.534Z,14.74
2022-11-27T01:08:02.517Z,14.74
2022-11-27T01:08:12.517Z,14.75
2022-11-27T01:08:22.517Z,14.74
2022-11-27T01:08:32.522Z,14.74
2022-11-27T01:08:42.518Z,14.74
2022-11-27T01:08:52.523Z,14.74
2022-11-27T01:09:02.521Z,14.74
2022-11-27T01:09:12.518Z,14.75
2022-11-27T01:09:22.520Z,14.74
2022-11-27T01:09:32.523Z,14.75
2022-11-27T01:09:42.525Z,14.75
2022-11-27T01:09:52.523Z,14.75
2022-11-27T01:10:02.525Z,14.74
2022-11-27T01:10:12.525Z,14.75
2022-11-27T01:10:22.527Z,14.75
2022-11-27T01:10:32.526Z,14.75
2022-11-27T01:10:42.531Z,14.75
2022-11-27T01:10:54.872Z,14.75
2022-11-27T01:11:02.530Z,14.75
2022-11-27T01:11:12.534Z,14.74
2022-11-27T01:11:22.535Z,14.75
2022-11-27T01:11:32.534Z,14.74
2022-11-27T01:11:42.535Z,14.74
2022-11-27T01:11:52.532Z,14.74
2022-11-27T01:12:02.536Z,14.74
2022-11-27T01:12:12.534Z,14.74
2022-11-27T01:12:22.537Z,14.75
2022-11-27T01:12:32.534Z,14.74
2022-11-27T01:12:42.537Z,14.74
2022-11-27T01:12:52.539Z,14.75
2022-11-27T01:13:02.537Z,14.74
2022-11-27T01:13:12.537Z,14.75
2022-11-27T01:13:22.545Z,14.74
2022-11-27T01:13:32.540Z,14.74
2022-11-27T01:13:42.542Z,14.74
2022-11-27T01:13:52.537Z,14.75
2022-11-27T01:14:02.541Z,14.75
2022-11-27T01:14:12.543Z,14.74
2022-11-27T01:14:22.549Z,14.74
2022-11-27T01:14:32.545Z,14.74
2022-11-27T01:14:42.572Z,14.75
2022-11-27T01:14:52.548Z,14.74
2022-11-27T01:15:02.550Z,14.74
2022-11-27T01:15:12.545Z,14.74
2022-11-27T01:15:22.546Z,14.74
2022-11-27T01:15:32.545Z,14.74
2022-11-27T01:15:42.594Z,14.74
2022-11-27T01:15:52.579Z,14.74
2022-11-27T01:16:02.582Z,14.74
2022-11-27T01:16:12.606Z,14.72
2022-11-27T01:16:22.615Z,14.74
2022-11-27T01:16:32.611Z,14.74
2022-11-27T01:16:43.434Z,14.72
2022-11-27T01:16:52.553Z,14.72
2022-11-27T01:17:02.559Z,14.74
2022-11-27T01:17:12.555Z,14.74
2022-11-27T01:17:22.555Z,14.72
2022-11-27T01:17:32.555Z,14.74
2022-11-27T01:17:42.557Z,14.72
2022-11-27T01:17:52.556Z,14.74
2022-11-27T01:18:02.561Z,14.74
2022-11-27T01:18:12.558Z,14.74
2022-11-27T01:18:22.559Z,14.74
2022-11-27T01:18:32.569Z,14.72
2022-11-27T01:18:42.570Z,14.74
2022-11-27T01:18:52.562Z,14.72
2022-11-27T01:19:02.546Z,14.72
2022-11-27T01:19:12.564Z,14.72
2022-11-27T01:19:22.563Z,14.72
2022-11-27T01:19:32.565Z,14.72
2022-11-27T01:19:42.565Z,14.74
2022-11-27T01:19:52.566Z,14.72
2022-11-27T01:20:02.570Z,14.72
2022-11-27T01:20:12.568Z,14.74
2022-11-27T01:20:22.570Z,14.72
2022-11-27T01:20:32.570Z,14.74
2022-11-27T01:20:42.569Z,14.72
2022-11-27T01:20:52.586Z,14.72
2022-11-27T01:21:02.573Z,14.72
2022-11-27T01:21:12.578Z,14.72
2022-11-27T01:21:22.574Z,14.72
2022-11-27T01:21:32.573Z,14.71
2022-11-27T01:21:42.577Z,14.72
2022-11-27T01:21:52.576Z,14.72
2022-11-27T01:22:02.577Z,14.74
2022-11-27T01:22:12.584Z,14.72
2022-11-27T01:22:22.578Z,14.71
2022-11-27T01:22:32.582Z,14.72
2022-11-27T01:22:42.579Z,14.72
2022-11-27T01:22:52.579Z,14.72
2022-11-27T01:23:02.580Z,14.72
2022-11-27T01:23:12.581Z,14.72
2022-11-27T01:23:22.583Z,14.72
2022-11-27T01:23:32.586Z,14.71
2022-11-27T01:23:42.584Z,14.74
2022-11-27T01:23:52.583Z,14.71
2022-11-27T01:24:02.587Z,14.72
2022-11-27T01:24:12.589Z,14.72
2022-11-27T01:24:22.596Z,14.72
2022-11-27T01:24:32.590Z,14.72
2022-11-27T01:24:42.738Z,14.72
2022-11-27T01:24:52.591Z,14.72
2022-11-27T01:25:02.593Z,14.72
2022-11-27T01:25:12.595Z,14.71
2022-11-27T01:25:26.755Z,14.72
2022-11-27T01:25:32.595Z,14.72
2022-11-27T01:25:42.596Z,14.71
2022-11-27T01:25:52.576Z,14.72
2022-11-27T01:26:02.597Z,14.72
2022-11-27T01:26:12.602Z,14.72
2022-11-27T01:26:22.598Z,14.74
2022-11-27T01:26:32.599Z,14.71
2022-11-27T01:26:42.602Z,14.71
2022-11-27T01:26:52.601Z,14.72
2022-11-27T01:27:02.603Z,14.71
2022-11-27T01:27:12.607Z,14.71
2022-11-27T01:27:22.608Z,14.72
2022-11-27T01:27:32.606Z,14.71
2022-11-27T01:27:42.609Z,14.71
2022-11-27T01:27:52.609Z,14.71
2022-11-27T01:28:02.608Z,14.71
2022-11-27T01:28:12.592Z,14.71
2022-11-27T01:28:22.611Z,14.72
2022-11-27T01:28:32.614Z,14.72
2022-11-27T01:28:42.612Z,14.72
2022-11-27T01:28:52.619Z,14.71
2022-11-27T01:29:02.624Z,14.72
2022-11-27T01:29:12.618Z,14.71
2022-11-27T01:29:22.619Z,14.72
2022-11-27T01:29:32.619Z,14.72
2022-11-27T01:29:42.619Z,14.71
2022-11-27T01:29:52.601Z,14.71
2022-11-27T01:30:02.620Z,14.72
2022-11-27T01:30:12.620Z,14.69
2022-11-27T01:30:22.653Z,14.71
2022-11-27T01:30:32.621Z,14.71
2022-11-27T01:30:42.627Z,14.71
2022-11-27T01:30:52.665Z,14.71
2022-11-27T01:31:02.665Z,14.71
2022-11-27T01:31:12.670Z,14.71
2022-11-27T01:31:22.646Z,14.72
2022-11-27T01:31:32.663Z,14.71
2022-11-27T01:31:42.676Z,14.71
2022-11-27T01:31:52.661Z,14.71
2022-11-27T01:32:02.633Z,14.71
2022-11-27T01:32:12.633Z,14.72
2022-11-27T01:32:22.635Z,14.71
2022-11-27T01:32:32.636Z,14.71
2022-11-27T01:32:42.638Z,14.71
2022-11-27T01:32:52.635Z,14.71
2022-11-27T01:33:02.638Z,14.69
2022-11-27T01:33:12.639Z,14.71
2022-11-27T01:33:22.688Z,14.69
2022-11-27T01:33:32.641Z,14.71
2022-11-27T01:33:42.642Z,14.71
2022-11-27T01:33:52.641Z,14.71
2022-11-27T01:34:02.642Z,14.71
2022-11-27T01:34:12.644Z,14.71
2022-11-27T01:34:22.645Z,14.71
2022-11-27T01:34:32.646Z,14.72
2022-11-27T01:34:42.750Z,14.71
2022-11-27T01:34:54.418Z,14.72
2022-11-27T01:35:02.652Z,14.71
2022-11-27T01:35:12.652Z,14.71
2022-11-27T01:35:22.632Z,14.71
2022-11-27T01:35:33.801Z,14.71
2022-11-27T01:35:42.637Z,14.71
2022-11-27T01:35:52.651Z,14.71
2022-11-27T01:36:02.651Z,14.72
2022-11-27T01:36:12.665Z,14.72
2022-11-27T01:36:22.654Z,14.71
2022-11-27T01:36:32.683Z,14.71
2022-11-27T01:36:42.655Z,14.71
2022-11-27T01:36:52.655Z,14.69
2022-11-27T01:37:02.656Z,14.71
2022-11-27T01:37:12.641Z,14.72
2022-11-27T01:37:22.659Z,14.72
2022-11-27T01:37:32.692Z,14.71
2022-11-27T01:37:42.662Z,14.71
2022-11-27T01:37:52.663Z,14.71
2022-11-27T01:38:02.663Z,14.72
2022-11-27T01:38:12.665Z,14.72
2022-11-27T01:38:22.664Z,14.72
2022-11-27T01:38:32.663Z,14.72
2022-11-27T01:38:42.671Z,14.71
2022-11-27T01:38:52.667Z,14.74
2022-11-27T01:39:02.670Z,14.72
2022-11-27T01:39:12.672Z,14.72
2022-11-27T01:39:22.671Z,14.71
2022-11-27T01:39:32.670Z,14.72
2022-11-27T01:39:42.679Z,14.74
2022-11-27T01:39:52.671Z,14.72
2022-11-27T01:40:02.673Z,14.74
2022-11-27T01:40:12.680Z,14.74
2022-11-27T01:40:22.674Z,14.72
2022-11-27T01:40:32.677Z,14.71
2022-11-27T01:40:42.683Z,14.71
2022-11-27T01:40:52.679Z,14.72
2022-11-27T01:41:02.667Z,14.72
2022-11-27T01:41:12.694Z,14.72
2022-11-27T01:41:22.681Z,14.74
2022-11-27T01:41:32.681Z,14.74
2022-11-27T01:41:42.687Z,14.72
2022-11-27T01:41:52.686Z,14.72
2022-11-27T01:42:02.689Z,14.72
2022-11-27T01:42:12.691Z,14.72
2022-11-27T01:42:22.687Z,14.72
2022-11-27T01:42:32.689Z,14.72
2022-11-27T01:42:42.700Z,14.72
2022-11-27T01:42:52.689Z,14.72
2022-11-27T01:43:02.692Z,14.74
2022-11-27T01:43:12.696Z,14.71
2022-11-27T01:43:22.692Z,14.74
2022-11-27T01:43:32.692Z,14.72
2022-11-27T01:43:42.694Z,14.72
2022-11-27T01:43:52.697Z,14.71
2022-11-27T01:44:02.698Z,14.72
2022-11-27T01:44:12.681Z,14.71
2022-11-27T01:44:22.698Z,14.72
2022-11-27T01:44:32.700Z,14.72
2022-11-27T01:44:42.905Z,14.72
2022-11-27T01:44:52.704Z,14.72
2022-11-27T01:45:02.701Z,14.72
2022-11-27T01:45:12.701Z,14.72
2022-11-27T01:45:22.703Z,14.72
2022-11-27T01:45:32.702Z,14.72
2022-11-27T01:45:42.702Z,14.71
2022-11-27T01:45:52.702Z,14.71
2022-11-27T01:46:02.721Z,14.72
2022-11-27T01:46:12.757Z,14.71
2022-11-27T01:46:22.739Z,14.72
2022-11-27T01:46:32.775Z,14.71
2022-11-27T01:46:42.843Z,14.71
2022-11-27T01:46:52.817Z,14.71
2022-11-27T01:47:02.708Z,14.71
2022-11-27T01:47:12.712Z,14.72
2022-11-27T01:47:22.711Z,14.72
2022-11-27T01:47:32.709Z,14.72
2022-11-27T01:47:42.714Z,14.71
2022-11-27T01:47:52.718Z,14.71
2022-11-27T01:48:02.713Z,14.72
2022-11-27T01:48:12.715Z,14.71
2022-11-27T01:48:22.714Z,14.71
2022-11-27T01:48:32.726Z,14.71
2022-11-27T01:48:42.715Z,14.71
2022-11-27T01:48:52.718Z,14.72
2022-11-27T01:49:02.718Z,14.71
2022-11-27T01:49:12.718Z,14.71
2022-11-27T01:49:22.718Z,14.71
2022-11-27T01:49:32.733Z,14.72
2022-11-27T01:49:42.724Z,14.72
2022-11-27T01:49:52.724Z,14.71
2022-11-27T01:50:02.723Z,14.71
2022-11-27T01:50:12.725Z,14.71
2022-11-27T01:50:22.731Z,14.71
2022-11-27T01:50:32.727Z,14.72
2022-11-27T01:50:42.728Z,14.71
2022-11-27T01:50:52.727Z,14.71
2022-11-27T01:51:02.714Z,14.71
2022-11-27T01:51:12.752Z,14.71
2022-11-27T01:51:22.734Z,14.71
2022-11-27T01:51:32.734Z,14.69
2022-11-27T01:51:42.734Z,14.72
2022-11-27T01:51:52.734Z,14.71
2022-11-27T01:52:02.740Z,14.71
2022-11-27T01:52:12.737Z,14.71
2022-11-27T01:52:22.740Z,14.71
2022-11-27T01:52:32.742Z,14.71
2022-11-27T01:52:42.750Z,14.69
2022-11-27T01:52:52.746Z,14.71
2022-11-27T01:53:02.746Z,14.72
2022-11-27T01:53:12.744Z,14.71
2022-11-27T01:53:22.742Z,14.71
2022-11-27T01:53:32.750Z,14.69
2022-11-27T01:53:42.745Z,14.71
2022-11-27T01:53:52.745Z,14.71
2022-11-27T01:54:02.746Z,14.69
2022-11-27T01:54:12.745Z,14.72
2022-11-27T01:54:22.746Z,14.72
2022-11-27T01:54:32.748Z,14.71
2022-11-27T01:54:42.927Z,14.71
2022-11-27T01:54:52.748Z,14.71
2022-11-27T01:55:02.755Z,14.71
2022-11-27T01:55:12.749Z,14.71
2022-11-27T01:55:22.749Z,14.71
2022-11-27T01:55:32.753Z,14.71
2022-11-27T01:55:42.750Z,14.71
2022-11-27T01:55:52.756Z,14.69
2022-11-27T01:56:02.749Z,14.69
2022-11-27T01:56:12.763Z,14.71
2022-11-27T01:56:22.753Z,14.71
2022-11-27T01:56:32.755Z,14.71
2022-11-27T01:56:42.756Z,14.69
2022-11-27T01:56:52.755Z,14.69
2022-11-27T01:57:02.758Z,14.71
2022-11-27T01:57:12.758Z,14.71
2022-11-27T01:57:22.760Z,14.69
2022-11-27T01:57:32.759Z,14.69
2022-11-27T01:57:42.760Z,14.71
2022-11-27T01:57:52.761Z,14.71
2022-11-27T01:58:02.765Z,14.71
2022-11-27T01:58:12.759Z,14.69
2022-11-27T01:58:22.743Z,14.69
2022-11-27T01:58:32.763Z,14.69
2022-11-27T01:58:42.761Z,14.71
2022-11-27T01:58:52.761Z,14.71
2022-11-27T01:59:02.765Z,14.71
2022-11-27T01:59:12.762Z,14.69
2022-11-27T01:59:22.763Z,14.71
2022-11-27T01:59:32.771Z,14.71
2022-11-27T01:59:42.763Z,14.71
2022-11-27T01:59:52.748Z,14.71
2022-11-27T02:00:02.777Z,14.69
2022-11-27T02:00:12.748Z,14.69
2022-11-27T02:00:22.778Z,14.71
2022-11-27T02:00:32.793Z,14.69
2022-11-27T02:00:42.787Z,14.69
2022-11-27T02:00:52.771Z,14.68
2022-11-27T02:01:02.779Z,14.69
2022-11-27T02:01:12.777Z,14.69
2022-11-27T02:01:22.826Z,14.69
2022-11-27T02:01:32.858Z,14.71
2022-11-27T02:01:42.839Z,14.69
2022-11-27T02:01:52.811Z,14.68
2022-11-27T02:02:02.836Z,14.69
2022-11-27T02:02:12.902Z,14.68
2022-11-27T02:02:22.777Z,14.68
2022-11-27T02:02:32.821Z,14.69
2022-11-27T02:02:42.815Z,14.69
2022-11-27T02:02:52.821Z,14.68
2022-11-27T02:03:02.820Z,14.71
2022-11-27T02:03:12.885Z,14.68
2022-11-27T02:03:22.828Z,14.69
2022-11-27T02:03:32.793Z,14.68
2022-11-27T02:03:42.783Z,14.68
2022-11-27T02:03:52.783Z,14.69
2022-11-27T02:04:02.798Z,14.67
2022-11-27T02:04:12.784Z,14.68
2022-11-27T02:04:22.786Z,14.69
2022-11-27T02:04:32.785Z,14.69
2022-11-27T02:04:42.988Z,14.69
2022-11-27T02:04:52.786Z,14.68
2022-11-27T02:05:02.788Z,14.68
2022-11-27T02:05:12.787Z,14.68
2022-11-27T02:05:22.807Z,14.68
2022-11-27T02:05:32.787Z,14.68
2022-11-27T02:05:42.792Z,14.69
2022-11-27T02:05:52.802Z,14.68
2022-11-27T02:06:02.798Z,14.68
2022-11-27T02:06:12.826Z,14.68
2022-11-27T02:06:22.797Z,14.67
2022-11-27T02:06:32.794Z,14.68
2022-11-27T02:06:42.795Z,14.68
2022-11-27T02:06:52.794Z,14.69
2022-11-27T02:07:02.815Z,14.67
2022-11-27T02:07:12.869Z,14.68
2022-11-27T02:07:22.856Z,14.68
2022-11-27T02:07:32.853Z,14.69
2022-11-27T02:07:42.829Z,14.67
2022-11-27T02:07:52.817Z,14.68
2022-11-27T02:08:02.798Z,14.69
2022-11-27T02:08:12.798Z,14.67
2022-11-27T02:08:22.805Z,14.68
2022-11-27T02:08:32.800Z,14.68
2022-11-27T02:08:42.802Z,14.68